RYR61LJ LEPA-LEZL
Flight info
| Callsign | RYR61LJ |
|---|---|
| Flight time | 1h 15m |
| Altitude | 38000 |
| Route | EPAMA N733 VLC M985 YES N747 BLN |
| Aircraft | B738/M-SDE3FGILRWY/SB1 |
Departure
| Time | 2026-04-22 11:09 |
|---|---|
| Airport | Palma de Mallorca Airport (LEPA) |
Arrival
| Time | 2026-04-22 12:25 |
|---|---|
| Airport | Seville Airport (LEZL) |
| Time | Latitude | Longitude | Altitude | Speed | Heading |
|---|---|---|---|---|---|
| 2026-04-22 11:01 | 39.54847 | 2.73856 | 29 ft | 0 kts | 268° |
| 2026-04-22 11:02 | 39.54848 | 2.73887 | 29 ft | 4 kts | 268° |
| 2026-04-22 11:02 | 39.54849 | 2.73922 | 29 ft | 4 kts | 268° |
| 2026-04-22 11:02 | 39.54849 | 2.73956 | 29 ft | 4 kts | 282° |
| 2026-04-22 11:02 | 39.54839 | 2.73986 | 29 ft | 4 kts | 322° |
| 2026-04-22 11:03 | 39.54818 | 2.73994 | 29 ft | 4 kts | 28° |
| 2026-04-22 11:03 | 39.54805 | 2.73977 | 29 ft | 4 kts | 58° |
| 2026-04-22 11:03 | 39.54798 | 2.73962 | 29 ft | 0 kts | 58° |
| 2026-04-22 11:05 | 39.54823 | 2.74015 | 29 ft | 13 kts | 58° |
| 2026-04-22 11:05 | 39.54822 | 2.74162 | 29 ft | 21 kts | 97° |
| 2026-04-22 11:05 | 39.54899 | 2.74358 | 29 ft | 29 kts | 58° |
| 2026-04-22 11:06 | 39.55008 | 2.74588 | 29 ft | 30 kts | 59° |
| 2026-04-22 11:06 | 39.55112 | 2.74810 | 29 ft | 29 kts | 58° |
| 2026-04-22 11:06 | 39.55218 | 2.75034 | 29 ft | 29 kts | 59° |
| 2026-04-22 11:06 | 39.55320 | 2.75247 | 29 ft | 29 kts | 58° |
| 2026-04-22 11:07 | 39.55427 | 2.75474 | 29 ft | 29 kts | 59° |
| 2026-04-22 11:07 | 39.55528 | 2.75691 | 29 ft | 27 kts | 59° |
| 2026-04-22 11:07 | 39.55625 | 2.75893 | 29 ft | 26 kts | 58° |
| 2026-04-22 11:07 | 39.55629 | 2.76041 | 29 ft | 16 kts | 146° |
| 2026-04-22 11:08 | 39.55524 | 2.76098 | 29 ft | 17 kts | 201° |
| 2026-04-22 11:08 | 39.55477 | 2.76023 | 29 ft | 8 kts | 238° |
| 2026-04-22 11:08 | 39.55471 | 2.76010 | 29 ft | 4 kts | 238° |
| 2026-04-22 11:08 | 39.55463 | 2.75995 | 29 ft | 8 kts | 238° |
| 2026-04-22 11:09 | 39.55302 | 2.75657 | 29 ft | 82 kts | 238° |
| 2026-04-22 11:09 | 39.54879 | 2.74768 | 29 ft | 147 kts | 238° |
| 2026-04-22 11:09 | 39.54280 | 2.73483 | 385 ft | 172 kts | 238° |
| 2026-04-22 11:09 | 39.53678 | 2.72177 | 1379 ft | 166 kts | 238° |
| 2026-04-22 11:10 | 39.53073 | 2.70780 | 1973 ft | 194 kts | 239° |
| 2026-04-22 11:10 | 39.52333 | 2.69204 | 2415 ft | 211 kts | 237° |
| 2026-04-22 11:10 | 39.51720 | 2.67395 | 2744 ft | 233 kts | 265° |
| 2026-04-22 11:10 | 39.51769 | 2.65200 | 3054 ft | 256 kts | 274° |
| 2026-04-22 11:11 | 39.51901 | 2.62855 | 3769 ft | 265 kts | 274° |
| 2026-04-22 11:11 | 39.52030 | 2.60470 | 4788 ft | 265 kts | 274° |
| 2026-04-22 11:11 | 39.52160 | 2.58084 | 5737 ft | 267 kts | 273° |
| 2026-04-22 11:11 | 39.52260 | 2.55665 | 6618 ft | 271 kts | 272° |
| 2026-04-22 11:12 | 39.52348 | 2.53199 | 7459 ft | 276 kts | 271° |
| 2026-04-22 11:12 | 39.52416 | 2.50695 | 8312 ft | 280 kts | 272° |
| 2026-04-22 11:12 | 39.52505 | 2.48168 | 9205 ft | 282 kts | 272° |
| 2026-04-22 11:12 | 39.52588 | 2.45606 | 10053 ft | 286 kts | 272° |
| 2026-04-22 11:13 | 39.52643 | 2.42984 | 10610 ft | 301 kts | 273° |
| 2026-04-22 11:13 | 39.52720 | 2.40154 | 10807 ft | 327 kts | 274° |
| 2026-04-22 11:13 | 39.52829 | 2.37154 | 11350 ft | 338 kts | 274° |
| 2026-04-22 11:13 | 39.52885 | 2.35131 | 11848 ft | 340 kts | 273° |
| 2026-04-22 11:14 | 39.52964 | 2.32063 | 12684 ft | 341 kts | 274° |
| 2026-04-22 11:14 | 39.53043 | 2.28981 | 13485 ft | 343 kts | 274° |
| 2026-04-22 11:14 | 39.53135 | 2.24817 | 14470 ft | 349 kts | 273° |
| 2026-04-22 11:14 | 39.53182 | 2.22733 | 14951 ft | 351 kts | 273° |
| 2026-04-22 11:15 | 39.53254 | 2.19568 | 15682 ft | 354 kts | 273° |
| 2026-04-22 11:15 | 39.53328 | 2.16349 | 16277 ft | 360 kts | 272° |
| 2026-04-22 11:15 | 39.53403 | 2.13101 | 17009 ft | 361 kts | 272° |
| 2026-04-22 11:15 | 39.53477 | 2.09839 | 17712 ft | 364 kts | 272° |
| 2026-04-22 11:16 | 39.53551 | 2.06548 | 18360 ft | 367 kts | 272° |
| 2026-04-22 11:16 | 39.53625 | 2.03223 | 18984 ft | 371 kts | 272° |
| 2026-04-22 11:16 | 39.53699 | 1.99875 | 19597 ft | 374 kts | 272° |
| 2026-04-22 11:16 | 39.53772 | 1.96493 | 20191 ft | 377 kts | 271° |
| 2026-04-22 11:17 | 39.53845 | 1.93091 | 20817 ft | 379 kts | 271° |
| 2026-04-22 11:17 | 39.53918 | 1.89669 | 21377 ft | 382 kts | 271° |
| 2026-04-22 11:17 | 39.53990 | 1.86214 | 21905 ft | 385 kts | 271° |
| 2026-04-22 11:17 | 39.54061 | 1.82732 | 22432 ft | 388 kts | 271° |
| 2026-04-22 11:18 | 39.54132 | 1.79227 | 22952 ft | 391 kts | 271° |
| 2026-04-22 11:18 | 39.54201 | 1.75696 | 23460 ft | 394 kts | 271° |
| 2026-04-22 11:18 | 39.54271 | 1.72137 | 23936 ft | 397 kts | 271° |
| 2026-04-22 11:18 | 39.54341 | 1.68553 | 24425 ft | 399 kts | 271° |
| 2026-04-22 11:19 | 39.54409 | 1.64950 | 24882 ft | 402 kts | 271° |
| 2026-04-22 11:19 | 39.54477 | 1.61325 | 25351 ft | 403 kts | 271° |
| 2026-04-22 11:19 | 39.54545 | 1.57685 | 25821 ft | 405 kts | 271° |
| 2026-04-22 11:19 | 39.54611 | 1.54026 | 26234 ft | 408 kts | 271° |
| 2026-04-22 11:20 | 39.54676 | 1.50350 | 26660 ft | 409 kts | 271° |
| 2026-04-22 11:20 | 39.54741 | 1.46652 | 27060 ft | 412 kts | 271° |
| 2026-04-22 11:20 | 39.54805 | 1.42936 | 27442 ft | 414 kts | 271° |
| 2026-04-22 11:20 | 39.54869 | 1.39151 | 27842 ft | 415 kts | 271° |
| 2026-04-22 11:21 | 39.54931 | 1.35403 | 28214 ft | 417 kts | 271° |
| 2026-04-22 11:21 | 39.54991 | 1.31690 | 28576 ft | 418 kts | 271° |
| 2026-04-22 11:21 | 39.55051 | 1.27911 | 28896 ft | 421 kts | 271° |
| 2026-04-22 11:21 | 39.55111 | 1.24057 | 29209 ft | 423 kts | 271° |
| 2026-04-22 11:22 | 39.55169 | 1.20232 | 29530 ft | 425 kts | 271° |
| 2026-04-22 11:22 | 39.55225 | 1.16449 | 29876 ft | 426 kts | 271° |
| 2026-04-22 11:22 | 39.55281 | 1.12608 | 30219 ft | 427 kts | 271° |
| 2026-04-22 11:22 | 39.55336 | 1.08766 | 30611 ft | 426 kts | 271° |
| 2026-04-22 11:23 | 39.55389 | 1.04938 | 31008 ft | 425 kts | 271° |
| 2026-04-22 11:23 | 39.55441 | 1.01113 | 31384 ft | 423 kts | 271° |
| 2026-04-22 11:23 | 39.55491 | 0.97304 | 31782 ft | 422 kts | 271° |
| 2026-04-22 11:23 | 39.55540 | 0.93506 | 32138 ft | 421 kts | 271° |
| 2026-04-22 11:24 | 39.55589 | 0.89710 | 32487 ft | 421 kts | 271° |
| 2026-04-22 11:24 | 39.55583 | 0.85919 | 32832 ft | 420 kts | 269° |
| 2026-04-22 11:24 | 39.55446 | 0.82141 | 33176 ft | 420 kts | 268° |
| 2026-04-22 11:24 | 39.55250 | 0.78372 | 33526 ft | 418 kts | 267° |
| 2026-04-22 11:25 | 39.55040 | 0.74613 | 33856 ft | 418 kts | 267° |
| 2026-04-22 11:25 | 39.54834 | 0.70861 | 34139 ft | 418 kts | 268° |
| 2026-04-22 11:25 | 39.54633 | 0.67055 | 34410 ft | 418 kts | 268° |
| 2026-04-22 11:25 | 39.54446 | 0.63350 | 34704 ft | 417 kts | 268° |
| 2026-04-22 11:26 | 39.54259 | 0.59561 | 35054 ft | 415 kts | 268° |
| 2026-04-22 11:26 | 39.54077 | 0.55831 | 35360 ft | 414 kts | 268° |
| 2026-04-22 11:26 | 39.53899 | 0.52153 | 35567 ft | 415 kts | 269° |
| 2026-04-22 11:26 | 39.53719 | 0.48420 | 35834 ft | 415 kts | 269° |
| 2026-04-22 11:27 | 39.53537 | 0.44698 | 36124 ft | 413 kts | 269° |
| 2026-04-22 11:27 | 39.53354 | 0.40981 | 36369 ft | 414 kts | 269° |
| 2026-04-22 11:27 | 39.53171 | 0.37266 | 36588 ft | 414 kts | 269° |
| 2026-04-22 11:27 | 39.52984 | 0.33506 | 36898 ft | 411 kts | 269° |
| 2026-04-22 11:28 | 39.52799 | 0.29827 | 37277 ft | 407 kts | 269° |
| 2026-04-22 11:28 | 39.52613 | 0.26187 | 37623 ft | 403 kts | 269° |
| 2026-04-22 11:28 | 39.52429 | 0.22569 | 37892 ft | 402 kts | 269° |
| 2026-04-22 11:29 | 39.52057 | 0.15294 | 37971 ft | 407 kts | 269° |
| 2026-04-22 11:29 | 39.51679 | 0.07988 | 37969 ft | 405 kts | 269° |
| 2026-04-22 11:30 | 39.51296 | 0.00739 | 37969 ft | 402 kts | 269° |
| 2026-04-22 11:30 | 39.50951 | -0.06471 | 37976 ft | 402 kts | 269° |
| 2026-04-22 11:31 | 39.50544 | -0.13764 | 37963 ft | 411 kts | 266° |
| 2026-04-22 11:31 | 39.50098 | -0.21165 | 37970 ft | 413 kts | 267° |
| 2026-04-22 11:32 | 39.49699 | -0.28609 | 37967 ft | 415 kts | 267° |
| 2026-04-22 11:32 | 39.49292 | -0.36073 | 37964 ft | 416 kts | 267° |
| 2026-04-22 11:33 | 39.48843 | -0.43530 | 37952 ft | 416 kts | 263° |
| 2026-04-22 11:33 | 39.48161 | -0.47167 | 37957 ft | 417 kts | 252° |
| 2026-04-22 11:33 | 39.47033 | -0.50621 | 37952 ft | 418 kts | 245° |
| 2026-04-22 11:34 | 39.43722 | -0.56820 | 37970 ft | 419 kts | 235° |
| 2026-04-22 11:34 | 39.40151 | -0.62764 | 37962 ft | 418 kts | 235° |
| 2026-04-22 11:35 | 39.36612 | -0.68718 | 37979 ft | 417 kts | 236° |
| 2026-04-22 11:35 | 39.33107 | -0.74666 | 37983 ft | 415 kts | 236° |
| 2026-04-22 11:36 | 39.29611 | -0.80603 | 37981 ft | 415 kts | 236° |
| 2026-04-22 11:36 | 39.26112 | -0.86526 | 37993 ft | 415 kts | 236° |
| 2026-04-22 11:37 | 39.22607 | -0.92428 | 37999 ft | 414 kts | 236° |
| 2026-04-22 11:37 | 39.19101 | -0.98326 | 38003 ft | 415 kts | 235° |
| 2026-04-22 11:38 | 39.15589 | -1.04228 | 38007 ft | 415 kts | 235° |
| 2026-04-22 11:38 | 39.10309 | -1.13080 | 38028 ft | 416 kts | 235° |
| 2026-04-22 11:39 | 39.06778 | -1.18988 | 38029 ft | 417 kts | 235° |
| 2026-04-22 11:39 | 39.03240 | -1.24897 | 38037 ft | 417 kts | 235° |
| 2026-04-22 11:40 | 38.99691 | -1.30816 | 38039 ft | 418 kts | 235° |
| 2026-04-22 11:40 | 38.96138 | -1.36743 | 38044 ft | 419 kts | 235° |
| 2026-04-22 11:41 | 38.92575 | -1.42676 | 38038 ft | 420 kts | 235° |
| 2026-04-22 11:41 | 38.89001 | -1.48617 | 38042 ft | 421 kts | 235° |
| 2026-04-22 11:42 | 38.85417 | -1.54564 | 38037 ft | 422 kts | 235° |
| 2026-04-22 11:42 | 38.81824 | -1.60515 | 38038 ft | 422 kts | 235° |
| 2026-04-22 11:43 | 38.78225 | -1.66464 | 38038 ft | 422 kts | 235° |
| 2026-04-22 11:43 | 38.74631 | -1.72400 | 38037 ft | 421 kts | 235° |
| 2026-04-22 11:44 | 38.71037 | -1.78315 | 38033 ft | 420 kts | 235° |
| 2026-04-22 11:44 | 38.67449 | -1.84207 | 38036 ft | 419 kts | 235° |
| 2026-04-22 11:45 | 38.63866 | -1.90077 | 38037 ft | 418 kts | 235° |
| 2026-04-22 11:45 | 38.60289 | -1.95930 | 38036 ft | 417 kts | 235° |
| 2026-04-22 11:46 | 38.56717 | -2.01766 | 38040 ft | 416 kts | 235° |
| 2026-04-22 11:46 | 38.53150 | -2.07587 | 38037 ft | 416 kts | 235° |
| 2026-04-22 11:47 | 38.49605 | -2.13362 | 38027 ft | 416 kts | 235° |
| 2026-04-22 11:47 | 38.46031 | -2.19178 | 38033 ft | 416 kts | 235° |
| 2026-04-22 11:48 | 38.42453 | -2.24996 | 38032 ft | 417 kts | 234° |
| 2026-04-22 11:48 | 38.38867 | -2.30816 | 38021 ft | 418 kts | 234° |
| 2026-04-22 11:49 | 38.35990 | -2.37160 | 38028 ft | 412 kts | 251° |
| 2026-04-22 11:49 | 38.34597 | -2.44198 | 38030 ft | 410 kts | 261° |
| 2026-04-22 11:50 | 38.33510 | -2.51328 | 38028 ft | 411 kts | 261° |
| 2026-04-22 11:50 | 38.32405 | -2.58467 | 38027 ft | 411 kts | 261° |
| 2026-04-22 11:51 | 38.31274 | -2.65603 | 38027 ft | 411 kts | 260° |
| 2026-04-22 11:51 | 38.30127 | -2.72744 | 38026 ft | 412 kts | 260° |
| 2026-04-22 11:52 | 38.28975 | -2.79879 | 38036 ft | 411 kts | 260° |
| 2026-04-22 11:52 | 38.27819 | -2.87006 | 38038 ft | 411 kts | 260° |
| 2026-04-22 11:53 | 38.26661 | -2.94127 | 38033 ft | 411 kts | 260° |
| 2026-04-22 11:53 | 38.25500 | -3.01229 | 37998 ft | 410 kts | 260° |
| 2026-04-22 11:54 | 38.24914 | -3.04811 | 37578 ft | 414 kts | 260° |
| 2026-04-22 11:54 | 38.24329 | -3.08367 | 37225 ft | 409 kts | 260° |
| 2026-04-22 11:54 | 38.23749 | -3.11889 | 36842 ft | 405 kts | 260° |
| 2026-04-22 11:54 | 38.23368 | -3.14201 | 36589 ft | 402 kts | 260° |
| 2026-04-22 11:55 | 38.22795 | -3.17670 | 36209 ft | 399 kts | 260° |
| 2026-04-22 11:55 | 38.22227 | -3.21105 | 35823 ft | 396 kts | 260° |
| 2026-04-22 11:55 | 38.21662 | -3.24514 | 35431 ft | 393 kts | 260° |
| 2026-04-22 11:55 | 38.21099 | -3.27905 | 35040 ft | 391 kts | 260° |
| 2026-04-22 11:56 | 38.20540 | -3.31271 | 34655 ft | 388 kts | 260° |
| 2026-04-22 11:56 | 38.19983 | -3.34614 | 34273 ft | 385 kts | 260° |
| 2026-04-22 11:56 | 38.19429 | -3.37935 | 33901 ft | 383 kts | 260° |
| 2026-04-22 11:56 | 38.18877 | -3.41236 | 33517 ft | 381 kts | 260° |
| 2026-04-22 11:57 | 38.18328 | -3.44516 | 33142 ft | 378 kts | 260° |
| 2026-04-22 11:57 | 38.17781 | -3.47776 | 32767 ft | 376 kts | 260° |
| 2026-04-22 11:57 | 38.17237 | -3.51016 | 32400 ft | 374 kts | 260° |
| 2026-04-22 11:57 | 38.16695 | -3.54234 | 32032 ft | 371 kts | 260° |
| 2026-04-22 11:58 | 38.16156 | -3.57433 | 31666 ft | 369 kts | 260° |
| 2026-04-22 11:58 | 38.15619 | -3.60612 | 31307 ft | 367 kts | 260° |
| 2026-04-22 11:58 | 38.15074 | -3.63764 | 30949 ft | 365 kts | 258° |
| 2026-04-22 11:58 | 38.14452 | -3.66883 | 30589 ft | 363 kts | 257° |
| 2026-04-22 11:59 | 38.13791 | -3.69969 | 30237 ft | 361 kts | 257° |
| 2026-04-22 11:59 | 38.13123 | -3.73033 | 29887 ft | 359 kts | 257° |
| 2026-04-22 11:59 | 38.12460 | -3.76078 | 29526 ft | 356 kts | 257° |
| 2026-04-22 11:59 | 38.11805 | -3.79100 | 29163 ft | 354 kts | 257° |
| 2026-04-22 12:00 | 38.11157 | -3.82108 | 28789 ft | 352 kts | 257° |
| 2026-04-22 12:00 | 38.10515 | -3.85099 | 28414 ft | 350 kts | 256° |
| 2026-04-22 12:00 | 38.09879 | -3.88072 | 28055 ft | 348 kts | 256° |
| 2026-04-22 12:00 | 38.09247 | -3.91030 | 27691 ft | 346 kts | 256° |
| 2026-04-22 12:01 | 38.08618 | -3.93969 | 27332 ft | 344 kts | 256° |
| 2026-04-22 12:01 | 38.07993 | -3.96890 | 26970 ft | 342 kts | 256° |
| 2026-04-22 12:01 | 38.07370 | -3.99799 | 26614 ft | 340 kts | 256° |
| 2026-04-22 12:01 | 38.06751 | -4.02687 | 26255 ft | 338 kts | 256° |
| 2026-04-22 12:02 | 38.06135 | -4.05559 | 25892 ft | 337 kts | 255° |
| 2026-04-22 12:02 | 38.05519 | -4.08422 | 25534 ft | 335 kts | 255° |
| 2026-04-22 12:02 | 38.04906 | -4.11268 | 25181 ft | 334 kts | 255° |
| 2026-04-22 12:02 | 38.04295 | -4.14105 | 24822 ft | 333 kts | 255° |
| 2026-04-22 12:03 | 38.03686 | -4.16928 | 24475 ft | 331 kts | 255° |
| 2026-04-22 12:03 | 38.03078 | -4.19740 | 24116 ft | 330 kts | 255° |
| 2026-04-22 12:03 | 38.02472 | -4.22540 | 23765 ft | 328 kts | 254° |
| 2026-04-22 12:03 | 38.01869 | -4.25327 | 23413 ft | 327 kts | 254° |
| 2026-04-22 12:04 | 38.01268 | -4.28099 | 23064 ft | 325 kts | 254° |
| 2026-04-22 12:04 | 38.00669 | -4.30856 | 22718 ft | 324 kts | 254° |
| 2026-04-22 12:04 | 38.00072 | -4.33606 | 22363 ft | 323 kts | 254° |
| 2026-04-22 12:04 | 37.99477 | -4.36340 | 22018 ft | 321 kts | 254° |
| 2026-04-22 12:05 | 37.98884 | -4.39061 | 21675 ft | 319 kts | 254° |
| 2026-04-22 12:05 | 37.98293 | -4.41765 | 21328 ft | 318 kts | 254° |
| 2026-04-22 12:05 | 37.97704 | -4.44463 | 20985 ft | 317 kts | 254° |
| 2026-04-22 12:05 | 37.97116 | -4.47152 | 20637 ft | 316 kts | 254° |
| 2026-04-22 12:06 | 37.96531 | -4.49826 | 20301 ft | 314 kts | 254° |
| 2026-04-22 12:06 | 37.95946 | -4.52490 | 19954 ft | 313 kts | 254° |
| 2026-04-22 12:06 | 37.95364 | -4.55143 | 19615 ft | 312 kts | 254° |
| 2026-04-22 12:06 | 37.94783 | -4.57785 | 19271 ft | 311 kts | 254° |
| 2026-04-22 12:07 | 37.94204 | -4.60416 | 18934 ft | 310 kts | 254° |
| 2026-04-22 12:07 | 37.93628 | -4.63036 | 18593 ft | 308 kts | 254° |
| 2026-04-22 12:07 | 37.93053 | -4.65645 | 18256 ft | 307 kts | 254° |
| 2026-04-22 12:07 | 37.92480 | -4.68235 | 17939 ft | 304 kts | 254° |
| 2026-04-22 12:08 | 37.91910 | -4.70814 | 17588 ft | 303 kts | 254° |
| 2026-04-22 12:08 | 37.91341 | -4.73378 | 17246 ft | 302 kts | 254° |
| 2026-04-22 12:08 | 37.90775 | -4.75934 | 16918 ft | 300 kts | 253° |
| 2026-04-22 12:08 | 37.90213 | -4.78472 | 16591 ft | 299 kts | 253° |
| 2026-04-22 12:09 | 37.89652 | -4.80998 | 16261 ft | 297 kts | 253° |
| 2026-04-22 12:09 | 37.89094 | -4.83511 | 15929 ft | 296 kts | 253° |
| 2026-04-22 12:09 | 37.88538 | -4.86011 | 15606 ft | 294 kts | 253° |
| 2026-04-22 12:09 | 37.87985 | -4.88494 | 15285 ft | 293 kts | 252° |
| 2026-04-22 12:10 | 37.87434 | -4.90966 | 14961 ft | 291 kts | 252° |
| 2026-04-22 12:10 | 37.86886 | -4.93425 | 14647 ft | 290 kts | 252° |
| 2026-04-22 12:10 | 37.86338 | -4.95873 | 14316 ft | 289 kts | 252° |
| 2026-04-22 12:10 | 37.85792 | -4.98307 | 14017 ft | 286 kts | 252° |
| 2026-04-22 12:11 | 37.85250 | -5.00727 | 13691 ft | 286 kts | 252° |
| 2026-04-22 12:11 | 37.84709 | -5.03146 | 13350 ft | 285 kts | 252° |
| 2026-04-22 12:11 | 37.84170 | -5.05550 | 13026 ft | 284 kts | 251° |
| 2026-04-22 12:11 | 37.83632 | -5.07941 | 12740 ft | 281 kts | 251° |
| 2026-04-22 12:12 | 37.83099 | -5.10313 | 12416 ft | 279 kts | 251° |
| 2026-04-22 12:12 | 37.82568 | -5.12679 | 12091 ft | 279 kts | 251° |
| 2026-04-22 12:12 | 37.82036 | -5.15034 | 11786 ft | 278 kts | 251° |
| 2026-04-22 12:12 | 37.81508 | -5.17376 | 11475 ft | 276 kts | 251° |
| 2026-04-22 12:13 | 37.80980 | -5.19710 | 11165 ft | 275 kts | 251° |
| 2026-04-22 12:13 | 37.80455 | -5.22033 | 10859 ft | 275 kts | 251° |
| 2026-04-22 12:13 | 37.79928 | -5.24360 | 10539 ft | 274 kts | 251° |
| 2026-04-22 12:13 | 37.79405 | -5.26670 | 10245 ft | 273 kts | 251° |
| 2026-04-22 12:14 | 37.78890 | -5.28946 | 10109 ft | 265 kts | 251° |
| 2026-04-22 12:14 | 37.78383 | -5.31181 | 9835 ft | 264 kts | 250° |
| 2026-04-22 12:14 | 37.77875 | -5.33411 | 9547 ft | 264 kts | 251° |
| 2026-04-22 12:14 | 37.77366 | -5.35637 | 9280 ft | 264 kts | 251° |
| 2026-04-22 12:15 | 37.76840 | -5.37858 | 8969 ft | 263 kts | 245° |
| 2026-04-22 12:15 | 37.75840 | -5.39748 | 8663 ft | 259 kts | 225° |
| 2026-04-22 12:15 | 37.74529 | -5.41309 | 8336 ft | 259 kts | 220° |
| 2026-04-22 12:15 | 37.73167 | -5.42804 | 8048 ft | 260 kts | 220° |
| 2026-04-22 12:16 | 37.71759 | -5.44237 | 7754 ft | 260 kts | 213° |
| 2026-04-22 12:16 | 37.70236 | -5.45461 | 7476 ft | 259 kts | 211° |
| 2026-04-22 12:16 | 37.68686 | -5.46638 | 7190 ft | 260 kts | 210° |
| 2026-04-22 12:16 | 37.67137 | -5.47820 | 6902 ft | 260 kts | 211° |
| 2026-04-22 12:17 | 37.65590 | -5.48997 | 6606 ft | 259 kts | 211° |
| 2026-04-22 12:17 | 37.64045 | -5.50188 | 6297 ft | 261 kts | 211° |
| 2026-04-22 12:17 | 37.62499 | -5.51391 | 5989 ft | 261 kts | 211° |
| 2026-04-22 12:17 | 37.60953 | -5.52588 | 5722 ft | 260 kts | 211° |
| 2026-04-22 12:18 | 37.59411 | -5.53799 | 5409 ft | 262 kts | 212° |
| 2026-04-22 12:18 | 37.57878 | -5.55040 | 5102 ft | 262 kts | 212° |
| 2026-04-22 12:18 | 37.56336 | -5.56267 | 4827 ft | 263 kts | 211° |
| 2026-04-22 12:18 | 37.54770 | -5.57459 | 4552 ft | 263 kts | 211° |
| 2026-04-22 12:19 | 37.53208 | -5.58663 | 4262 ft | 264 kts | 211° |
| 2026-04-22 12:19 | 37.51625 | -5.59852 | 3949 ft | 265 kts | 211° |
| 2026-04-22 12:19 | 37.50094 | -5.61057 | 3883 ft | 251 kts | 212° |
| 2026-04-22 12:19 | 37.48668 | -5.62181 | 3730 ft | 233 kts | 214° |
| 2026-04-22 12:20 | 37.47353 | -5.63254 | 3584 ft | 219 kts | 212° |
| 2026-04-22 12:20 | 37.46072 | -5.64233 | 3409 ft | 213 kts | 210° |
| 2026-04-22 12:20 | 37.44815 | -5.65201 | 3307 ft | 211 kts | 213° |
| 2026-04-22 12:20 | 37.43585 | -5.66172 | 3201 ft | 206 kts | 212° |
| 2026-04-22 12:21 | 37.42451 | -5.67210 | 3122 ft | 199 kts | 229° |
| 2026-04-22 12:21 | 37.41947 | -5.68813 | 2998 ft | 203 kts | 265° |
| 2026-04-22 12:21 | 37.41915 | -5.70596 | 2727 ft | 204 kts | 267° |
| 2026-04-22 12:21 | 37.41872 | -5.72349 | 2475 ft | 197 kts | 267° |
| 2026-04-22 12:22 | 37.41859 | -5.74058 | 2195 ft | 193 kts | 269° |
| 2026-04-22 12:22 | 37.41857 | -5.75722 | 1957 ft | 188 kts | 269° |
| 2026-04-22 12:22 | 37.41849 | -5.77336 | 1717 ft | 180 kts | 268° |
| 2026-04-22 12:22 | 37.41841 | -5.78841 | 1520 ft | 164 kts | 269° |
| 2026-04-22 12:23 | 37.41836 | -5.80236 | 1278 ft | 156 kts | 268° |
| 2026-04-22 12:23 | 37.41827 | -5.81585 | 1067 ft | 152 kts | 269° |
| 2026-04-22 12:23 | 37.41822 | -5.82918 | 839 ft | 151 kts | 268° |
| 2026-04-22 12:23 | 37.41813 | -5.84233 | 680 ft | 150 kts | 268° |
| 2026-04-22 12:24 | 37.41805 | -5.85567 | 477 ft | 153 kts | 268° |
| 2026-04-22 12:24 | 37.41801 | -5.86905 | 252 ft | 151 kts | 269° |
| 2026-04-22 12:24 | 37.41795 | -5.88183 | 106 ft | 138 kts | 269° |
| 2026-04-22 12:24 | 37.41794 | -5.89207 | 99 ft | 96 kts | 269° |
| 2026-04-22 12:25 | 37.41792 | -5.89694 | 97 ft | 26 kts | 275° |
| 2026-04-22 12:25 | 37.41900 | -5.89830 | 96 ft | 12 kts | 338° |
| 2026-04-22 12:25 | 37.41937 | -5.89849 | 97 ft | 0 kts | 338° |
| 2026-04-22 12:25 | 37.41950 | -5.89856 | 95 ft | 4 kts | 338° |
| 2026-04-22 12:26 | 37.41973 | -5.89868 | 94 ft | 4 kts | 338° |
| 2026-04-22 12:26 | 37.42002 | -5.89883 | 95 ft | 7 kts | 338° |
| 2026-04-22 12:26 | 37.42063 | -5.89915 | 93 ft | 11 kts | 336° |
| 2026-04-22 12:26 | 37.42134 | -5.89919 | 93 ft | 11 kts | 37° |
| 2026-04-22 12:27 | 37.42182 | -5.89861 | 92 ft | 7 kts | 39° |
| 2026-04-22 12:27 | 37.42223 | -5.89886 | 93 ft | 7 kts | 315° |
| 2026-04-22 12:27 | 37.42240 | -5.89908 | 93 ft | 1 kts | 315° |
| 2026-04-22 12:27 | 37.42243 | -5.89911 | 93 ft | 0 kts | 315° |